Data for 05/22/2008

Time Sea-Level Adjusted Pressure Absolute Pressure Temperature Relative Humidity Dew Point   
(mb) (inHg) (mb) (inHg) (C) (F) (%) (C) (F)
00:05 1009 29.8 838 24.75 2.2 36 164 9.3 48.8
00:10 1009 29.8 838 24.75 2.1 35.8 164 9.2 48.6
00:15 1009 29.8 838 24.75 2 35.7 164 9.1 48.4
00:20 1009 29.8 838 24.75 2.1 35.7 164 9.2 48.5
00:25 1009 29.8 838 24.75 2.1 35.8 164 9.2 48.6
00:30 1009 29.8 838 24.75 2.2 36 164 9.3 48.8
00:35 1008 29.77 838 24.75 2.1 35.8 164 9.2 48.6
00:40 1008 29.77 838 24.75 2.1 35.7 164 9.1 48.5
00:45 1008 29.77 838 24.75 2 35.6 164 9.1 48.4
00:50 1008 29.77 838 24.75 1.9 35.4 164 9 48.2
00:55 1008 29.77 838 24.75 1.8 35.3 164 8.9 48.1
01:00 1008 29.77 837 24.72 1.8 35.3 164 8.9 48.1
01:05 1008 29.77 837 24.72 1.8 35.2 164 8.9 48
01:10 1008 29.77 837 24.72 1.7 35.1 164 8.8 47.9
01:15 1008 29.77 837 24.72 1.7 35.1 164 8.8 47.9
01:20 1008 29.77 837 24.72 1.6 34.9 164 8.7 47.7
01:25 1008 29.77 837 24.72 1.7 35 164 8.7 47.7
01:30 1008 29.77 837 24.72 1.6 34.9 164 8.7 47.7
01:35 1008 29.77 837 24.72 1.5 34.8 164 8.6 47.5
01:40 1008 29.77 837 24.72 1.5 34.8 164 8.6 47.5
01:45 1008 29.77 837 24.72 1.6 35 164 8.7 47.7
01:50 1008 29.77 837 24.72 1.6 35 164 8.7 47.7
01:55 1008 29.77 837 24.72 1.6 34.9 164 8.7 47.7
02:00 1007 29.74 837 24.72 1.6 34.9 164 8.7 47.6
02:05 1007 29.74 836 24.69 1.5 34.7 164 8.6 47.4
02:10 1007 29.74 836 24.69 1.3 34.4 164 8.4 47.2
02:15 1007 29.74 836 24.69 1.5 34.7 164 8.6 47.4
02:20 1007 29.74 836 24.69 1.5 34.6 164 8.6 47.4
02:25 1007 29.74 836 24.69 1.5 34.6 164 8.5 47.4
02:30 1007 29.74 836 24.69 1.4 34.5 164 8.5 47.2
02:35 1007 29.74 836 24.69 1.2 34.2 164 8.3 47
02:40 1007 29.74 836 24.69 1.1 33.9 164 8.1 46.7
02:45 1007 29.74 836 24.69 1 33.7 164 8 46.4
02:50 1007 29.74 836 24.69 1 33.7 164 8 46.4
02:55 1007 29.74 836 24.69 0.9 33.6 164 7.9 46.3
03:00 1007 29.74 836 24.69 0.9 33.5 164 7.9 46.2
03:05 1007 29.74 836 24.69 0.9 33.7 164 8 46.4
03:10 1007 29.74 836 24.69 1.1 33.9 164 8.1 46.6
03:15 1007 29.74 836 24.69 1.2 34.1 164 8.2 46.8
03:20 1007 29.74 836 24.69 1.2 34.1 164 8.2 46.8
03:25 1007 29.74 836 24.69 1.2 34.2 164 8.3 47
03:30 1007 29.74 836 24.69 1.2 34.2 164 8.3 46.9
03:35 1007 29.74 836 24.69 1.2 34.2 164 8.3 46.9
03:40 1007 29.74 836 24.69 1.2 34.2 164 8.3 46.9
03:45 1007 29.74 836 24.69 1.2 34.1 164 8.2 46.8
03:50 1007 29.74 836 24.69 1.2 34.2 164 8.3 47
03:55 1007 29.74 836 24.69 1.3 34.3 164 8.3 47
04:00 1007 29.74 836 24.69 1.3 34.3 164 8.3 47
04:05 1007 29.74 836 24.69 1.3 34.4 164 8.4 47.1
04:10 1007 29.74 836 24.69 1.4 34.4 164 8.4 47.1
04:15 1007 29.74 836 24.69 1.4 34.4 164 8.4 47.2
04:20 1007 29.74 836 24.69 1.4 34.5 164 8.5 47.3
04:25 1007 29.74 836 24.69 1.4 34.6 164 8.5 47.4
04:30 1007 29.74 836 24.69 1.5 34.7 164 8.6 47.4
04:35 1007 29.74 836 24.69 1.5 34.8 164 8.6 47.5
04:40 1006 29.71 836 24.69 1.6 34.8 164 8.6 47.6
04:45 1006 29.71 836 24.69 1.6 34.9 164 8.7 47.7
04:50 1006 29.71 836 24.69 1.7 35.1 164 8.8 47.9
04:55 1006 29.71 836 24.69 1.8 35.2 164 8.9 48
05:00 1006 29.71 836 24.69 1.8 35.2 164 8.9 48
05:05 1006 29.71 835 24.66 1.8 35.2 164 8.9 47.9
05:10 1006 29.71 835 24.66 1.8 35.2 164 8.9 48
05:15 1006 29.71 835 24.66 1.8 35.3 164 8.9 48
05:20 1006 29.71 835 24.66 1.8 35.2 164 8.9 48
05:25 1006 29.71 835 24.66 1.8 35.2 164 8.9 47.9
05:30 1006 29.71 836 24.69 1.9 35.4 164 9 48.2
05:35 1006 29.71 836 24.69 2 35.6 164 9.1 48.3
05:40 1006 29.71 836 24.69 2 35.5 164 9.1 48.3
05:45 1006 29.71 836 24.69 2 35.6 164 9.1 48.4
05:50 1006 29.71 836 24.69 2.1 35.8 164 9.2 48.6
05:55 1006 29.71 836 24.69 2.2 35.9 164 9.3 48.7
06:00 1006 29.71 836 24.69 2.2 35.9 164 9.3 48.7
06:05 1006 29.71 836 24.69 2.3 36.1 164 9.4 48.9
06:10 1006 29.71 836 24.69 2.3 36.1 164 9.4 48.9
06:15 1006 29.71 836 24.69 2.2 36 164 9.3 48.8
06:20 1006 29.71 835 24.66 2.1 35.8 164 9.2 48.6
06:25 1006 29.71 835 24.66 2.1 35.8 164 9.2 48.6
06:30 1006 29.71 835 24.66 2 35.6 164 9.1 48.4
06:35 1006 29.71 835 24.66 1.9 35.5 164 9 48.3
06:40 1006 29.71 835 24.66 2 35.7 164 9.1 48.4
06:45 1006 29.71 835 24.66 2.1 35.8 164 9.2 48.6
06:50 1006 29.71 835 24.66 2.1 35.8 164 9.2 48.6
06:55 1006 29.71 835 24.66 2.2 35.9 164 9.3 48.7
07:00 1006 29.71 835 24.66 2.2 36 164 9.3 48.8
07:05 1006 29.71 835 24.66 2.2 36 164 9.3 48.8
07:10 1006 29.71 835 24.66 2.2 36 164 9.3 48.8
07:15 1006 29.71 835 24.66 2.2 35.9 164 9.3 48.7
07:20 1006 29.71 835 24.66 2.1 35.8 164 9.2 48.6
07:25 1006 29.71 835 24.66 2.1 35.8 164 9.2 48.6
07:30 1006 29.71 835 24.66 2.1 35.8 164 9.2 48.6
07:35 1006 29.71 835 24.66 2.2 35.9 164 9.3 48.7
07:40 1006 29.71 835 24.66 2 35.5 164 9.1 48.3
07:45 1006 29.71 835 24.66 2 35.5 164 9.1 48.3
07:50 1006 29.71 835 24.66 2 35.6 164 9.1 48.3
07:55 1006 29.71 835 24.66 1.9 35.4 164 9 48.2
08:00 1006 29.71 835 24.66 1.9 35.5 164 9 48.3
08:05 1006 29.71 835 24.66 2 35.5 164 9.1 48.3
08:10 1006 29.71 835 24.66 1.9 35.4 164 9 48.2
08:15 1006 29.71 835 24.66 1.9 35.4 164 9 48.2
08:20 1006 29.71 835 24.66 1.9 35.5 164 9 48.2
08:25 1006 29.71 835 24.66 2 35.6 164 9.1 48.3
08:30 1006 29.71 835 24.66 2.2 36 164 9.3 48.8
08:35 1006 29.71 835 24.66 2.1 35.8 164 9.2 48.6
08:40 1006 29.71 835 24.66 2.1 35.8 164 9.2 48.6
08:45 1006 29.71 835 24.66 2.3 36.2 164 9.4 49
08:50 1006 29.71 835 24.66 2.5 36.4 164 9.6 49.2
08:55 1006 29.71 835 24.66 2.6 36.7 164 9.8 49.6
09:00 1006 29.71 835 24.66 2.7 36.9 164 9.8 49.7
09:05 1006 29.71 835 24.66 2.8 37.1 164 10 49.9
09:10 1006 29.71 835 24.66 3 37.3 164 10.1 50.2
09:15 1006 29.71 835 24.66 3 37.4 164 10.1 50.3
09:20 1006 29.71 835 24.66 2.9 37.2 164 10 50
09:25 1006 29.71 835 24.66 2.8 37.1 164 10 49.9
09:30 1006 29.71 835 24.66 2.9 37.2 164 10 50
09:35 1006 29.71 835 24.66 2.9 37.2 164 10 50.1
09:40 1006 29.71 835 24.66 3 37.3 164 10.1 50.2
09:45 1006 29.71 835 24.66 3.1 37.5 164 10.2 50.4
09:50 1006 29.71 835 24.66 3 37.5 164 10.2 50.3
09:55 1006 29.71 835 24.66 3 37.4 164 10.2 50.3
10:00 1006 29.71 835 24.66 3.2 37.7 164 10.3 50.6
10:05 1006 29.71 835 24.66 2.9 37.2 164 10 50
10:10 1006 29.71 835 24.66 2.5 36.5 164 9.7 49.4
10:15 1006 29.71 835 24.66 2.4 36.3 164 9.5 49.1
10:20 1006 29.71 835 24.66 2.2 35.9 164 9.3 48.7
10:25 1006 29.71 835 24.66 2.1 35.7 164 9.1 48.5
10:30 1006 29.71 835 24.66 2 35.6 164 9.1 48.4
10:35 1006 29.71 835 24.66 2.2 35.9 164 9.3 48.7
10:40 1006 29.71 835 24.66 2.1 35.7 164 9.2 48.5
10:45 1006 29.71 835 24.66 1.9 35.5 164 9 48.2
10:50 1006 29.71 835 24.66 2.2 35.9 164 9.3 48.7
10:55 1006 29.71 835 24.66 2.3 36.1 164 9.4 48.9
11:00 1006 29.71 835 24.66 2.2 36 164 9.3 48.8
11:05 1006 29.71 835 24.66 2.2 35.9 164 9.3 48.7
11:10 1006 29.71 835 24.66 2.1 35.8 164 9.2 48.6
11:15 1006 29.71 835 24.66 2.4 36.3 164 9.5 49.1
11:20 1006 29.71 835 24.66 2.5 36.5 164 9.6 49.3
11:25 1006 29.71 835 24.66 2.4 36.3 164 9.5 49.1
11:30 1006 29.71 835 24.66 2.4 36.3 164 9.5 49.1
11:35 1006 29.71 835 24.66 2.4 36.4 164 9.6 49.2
11:40 1006 29.71 835 24.66 2.7 36.9 164 9.9 49.7
11:45 1006 29.71 835 24.66 3 37.3 164 10.1 50.2
11:50 1006 29.71 835 24.66 3.3 38 164 10.5 50.9
11:55 1006 29.71 835 24.66 3.1 37.6 164 10.3 50.5
12:00 1006 29.71 835 24.66 3.1 37.5 164 10.2 50.3
12:05 1006 29.71 835 24.66 3.6 38.5 164 10.8 51.5
12:10 1006 29.71 835 24.66 4.2 39.6 164 11.4 52.5
12:15 1006 29.71 835 24.66 4.6 40.2 164 11.8 53.2
12:20 1006 29.71 835 24.66 4.8 40.6 164 12 53.6
12:25 1006 29.71 835 24.66 4.6 40.3 164 11.8 53.3
12:30 1006 29.71 835 24.66 4.3 39.7 164 11.5 52.6
12:35 1006 29.71 835 24.66 4.4 40 164 11.7 53
12:40 1006 29.71 835 24.66 4.6 40.3 164 11.8 53.3
12:45 1005 29.68 835 24.66 4.9 40.7 164 12.1 53.7
12:50 1005 29.68 835 24.66 4.8 40.6 164 12 53.6
12:55 1005 29.68 835 24.66 4.7 40.4 164 11.9 53.4
13:00 1005 29.68 835 24.66 4.7 40.4 164 11.9 53.4
13:05 1005 29.68 835 24.66 4.8 40.6 164 12 53.6
13:10 1005 29.68 835 24.66 4.6 40.3 164 11.9 53.3
13:15 1005 29.68 834 24.63 4.6 40.3 164 11.8 53.3
13:20 1005 29.68 834 24.63 4.6 40.3 164 11.8 53.3
13:25 1005 29.68 834 24.63 4.5 40.1 164 11.7 53.1
13:30 1005 29.68 835 24.66 4.4 40 164 11.6 53
13:35 1005 29.68 834 24.63 4.4 40 164 11.6 53
13:40 1005 29.68 834 24.63 4.5 40.1 164 11.7 53.1
13:45 1005 29.68 834 24.63 4.6 40.2 164 11.8 53.2
13:50 1005 29.68 834 24.63 4.4 39.9 164 11.6 52.9
13:55 1005 29.68 834 24.63 4.3 39.7 164 11.5 52.7
14:00 1005 29.68 834 24.63 4.2 39.5 164 11.4 52.5
14:05 1005 29.68 835 24.66 4.1 39.4 164 11.3 52.4
14:10 1005 29.68 835 24.66 4.2 39.5 164 11.4 52.5
14:15 1005 29.68 835 24.66 4.2 39.5 164 11.4 52.4
14:20 1005 29.68 835 24.66 3.9 39 164 11.1 52
14:25 1005 29.68 835 24.66 3.7 38.6 164 10.8 51.5
14:30 1005 29.68 835 24.66 3.7 38.7 164 10.9 51.6
14:35 1005 29.68 834 24.63 3.7 38.6 164 10.9 51.5
14:40 1005 29.68 834 24.63 3.7 38.6 164 10.8 51.5
14:45 1005 29.68 834 24.63 3.9 39 164 11.1 51.9
14:50 1005 29.68 834 24.63 4 39.2 164 11.2 52.1
14:55 1005 29.68 834 24.63 3.7 38.6 164 10.8 51.5
15:00 1005 29.68 834 24.63 3.5 38.3 164 10.7 51.2
15:05 1005 29.68 834 24.63 3.4 38.1 164 10.6 51
15:10 1005 29.68 834 24.63 3.3 37.9 164 10.5 50.8
15:15 1005 29.68 834 24.63 3.3 38 164 10.5 50.9
15:20 1005 29.68 834 24.63 3.3 37.9 164 10.4 50.7
15:25 1005 29.68 834 24.63 3.3 37.9 164 10.4 50.8
15:30 1005 29.68 834 24.63 3.2 37.8 164 10.4 50.7
15:35 1005 29.68 834 24.63 3.1 37.6 164 10.2 50.4
15:40 1005 29.68 834 24.63 3.1 37.5 164 10.2 50.4
15:45 1005 29.68 834 24.63 3.1 37.7 164 10.3 50.5
15:50 1005 29.68 834 24.63 3.3 37.9 164 10.4 50.8
15:55 1004 29.65 834 24.63 3.2 37.8 164 10.4 50.7
16:00 1004 29.65 834 24.63 3.2 37.7 164 10.3 50.6
16:05 1004 29.65 834 24.63 3.2 37.7 164 10.3 50.6
16:10 1004 29.65 834 24.63 3.4 38.1 164 10.5 51
16:15 1004 29.65 833 24.6 3.5 38.3 164 10.7 51.2
16:20 1004 29.65 834 24.63 3.5 38.2 164 10.6 51.2
16:25 1004 29.65 834 24.63 3.5 38.3 164 10.7 51.2
16:30 1004 29.65 834 24.63 3.5 38.2 164 10.6 51.1
16:35 1004 29.65 834 24.63 3.5 38.3 164 10.7 51.2
16:40 1004 29.65 834 24.63 3.5 38.4 164 10.7 51.3
16:45 1004 29.65 834 24.63 3.7 38.6 164 10.8 51.5
16:50 1004 29.65 834 24.63 3.6 38.4 164 10.7 51.3
16:55 1004 29.65 833 24.6 3.6 38.4 164 10.7 51.3
17:00 1004 29.65 833 24.6 3.7 38.7 164 10.9 51.6
17:05 1004 29.65 833 24.6 4.2 39.5 164 11.4 52.5
17:10 1004 29.65 833 24.6 4.6 40.2 164 11.8 53.2
17:15 1004 29.65 833 24.6 4.8 40.6 164 12 53.6
17:20 1004 29.65 833 24.6 4.8 40.6 164 12 53.6
17:25 1004 29.65 833 24.6 4.7 40.4 164 11.9 53.4
17:30 1004 29.65 833 24.6 4.6 40.3 164 11.9 53.3
17:35 1004 29.65 833 24.6 4.6 40.3 164 11.9 53.3
17:40 1004 29.65 833 24.6 4.6 40.4 164 11.9 53.4
17:45 1004 29.65 833 24.6 4.7 40.5 164 11.9 53.5
17:50 1004 29.65 833 24.6 4.8 40.7 164 12 53.7
17:55 1004 29.65 833 24.6 4.9 40.8 164 12.1 53.8
18:00 1004 29.65 833 24.6 4.8 40.7 164 12.1 53.8
18:05 1004 29.65 833 24.6 4.7 40.5 164 11.9 53.5
18:10 1004 29.65 833 24.6 4.7 40.4 164 11.9 53.4
18:15 1004 29.65 833 24.6 4.8 40.6 164 12 53.6
18:20 1004 29.65 833 24.6 4.8 40.6 164 12 53.6
18:25 1004 29.65 833 24.6 4.8 40.7 164 12 53.7
18:30 1004 29.65 833 24.6 5 41 164 12.2 54
18:35 1004 29.65 833 24.6 5 40.9 95 4.2 39.6
18:40 1004 29.65 833 24.6 4.9 40.7 95 4.1 39.4
18:45 1004 29.65 833 24.6 4.8 40.6 95 4.1 39.3
18:50 1004 29.65 833 24.6 4.8 40.6 95 4.1 39.3
18:55 1004 29.65 833 24.6 4.8 40.6 95 4.1 39.3
19:00 1004 29.65 833 24.6 4.8 40.6 95 4.1 39.3
19:05 1004 29.65 833 24.6 4.7 40.5 96 4.1 39.3
19:10 1004 29.65 833 24.6 4.7 40.4 96 4 39.3
19:15 1004 29.65 833 24.6 4.6 40.4 96 4.1 39.4
19:20 1004 29.65 833 24.6 4.6 40.3 97 4.1 39.4
19:25 1004 29.65 833 24.6 4.5 40.1 97 4.1 39.3
19:30 1004 29.65 833 24.6 4.4 40 98 4.1 39.4
19:35 1004 29.65 833 24.6 4.4 40 98 4.1 39.5
19:40 1004 29.65 833 24.6 4.4 40 98 4.2 39.5
19:45 1004 29.65 833 24.6 4.4 40 98 4.2 39.5
19:50 1004 29.65 833 24.6 4.4 39.9 99 4.2 39.5
19:55 1004 29.65 833 24.6 4.4 40 99 4.3 39.7
20:00 1004 29.65 833 24.6 4.5 40.1 99 4.3 39.8
20:05 1004 29.65 833 24.6 4.5 40.1 99 4.4 39.8
20:10 1004 29.65 833 24.6 4.5 40.1 99 4.4 39.9
20:15 1004 29.65 833 24.6 4.5 40.2 100 4.5 40.1
20:20 1004 29.65 833 24.6 4.6 40.2 100 4.5 40.2
20:25 1004 29.65 833 24.6 4.6 40.3 100 4.6 40.3
20:30 1004 29.65 833 24.6 4.6 40.3 100 4.6 40.3
20:35 1004 29.65 833 24.6 4.7 40.4 100 4.7 40.4
20:40 1004 29.65 833 24.6 4.6 40.3 100 4.6 40.3
20:45 1004 29.65 833 24.6 4.6 40.2 100 4.6 40.2
20:50 1004 29.65 834 24.63 4.6 40.3 100 4.6 40.3
20:55 1004 29.65 834 24.63 4.6 40.3 100 4.6 40.3
21:00 1004 29.65 833 24.6 5 40.9 100 5 40.9
21:05 1004 29.65 833 24.6 5 41 163 12.1 53.9
21:10 1004 29.65 833 24.6 4.9 40.8 164 12.1 53.8
21:15 1004 29.65 833 24.6 4.9 40.8 164 12.1 53.8
21:20 1004 29.65 833 24.6 4.9 40.8 164 12.1 53.8
21:25 1004 29.65 833 24.6 4.9 40.7 164 12.1 53.7
21:30 1004 29.65 833 24.6 4.8 40.7 164 12 53.7
21:35 1004 29.65 833 24.6 4.8 40.6 164 12 53.6
21:40 1004 29.65 833 24.6 4.8 40.6 164 12 53.6
21:45 1004 29.65 833 24.6 4.7 40.5 164 12 53.5
21:50 1004 29.65 833 24.6 4.7 40.5 164 11.9 53.5
21:55 1004 29.65 833 24.6 4.7 40.4 164 11.9 53.4
22:00 1004 29.65 833 24.6 4.7 40.4 164 11.9 53.4
22:05 1004 29.65 833 24.6 4.7 40.4 164 11.9 53.4
22:10 1004 29.65 833 24.6 4.7 40.4 164 11.9 53.4
22:15 1004 29.65 833 24.6 4.8 40.6 164 12 53.5
22:20 1004 29.65 833 24.6 4.8 40.7 164 12 53.7
22:25 1004 29.65 833 24.6 4.8 40.7 164 12 53.7
22:30 1004 29.65 833 24.6 4.9 40.8 164 12.1 53.8
22:35 1004 29.65 833 24.6 4.9 40.8 164 12.1 53.8
22:40 1004 29.65 833 24.6 4.9 40.9 164 12.2 53.9
22:45 1004 29.65 833 24.6 4.9 40.9 164 12.2 53.9
22:50 1004 29.65 833 24.6 5 41 164 12.2 54
22:55 1004 29.65 833 24.6 5.1 41.1 94 4.2 39.5
23:00 1004 29.65 833 24.6 5 41 94 4.1 39.4
23:05 1004 29.65 833 24.6 5 41 94 4.1 39.3
23:10 1004 29.65 833 24.6 5 41 94 4.1 39.3
23:15 1004 29.65 833 24.6 5 40.9 94 4 39.2
23:20 1004 29.65 833 24.6 5 41 93 4 39.2
23:25 1004 29.65 833 24.6 5 41.1 93 4.1 39.3
23:30 1004 29.65 833 24.6 5 41.1 93 4.1 39.3
23:35 1004 29.65 833 24.6 5 41.1 94 4.1 39.4
23:40 1004 29.65 833 24.6 5.1 41.1 94 4.1 39.4
23:45 1004 29.65 833 24.6 5.1 41.2 94 4.2 39.5
23:50 1004 29.65 833 24.6 5.2 41.4 93 4.2 39.5
23:55 1004 29.65 833 24.6 5.3 41.6 92 4.2 39.6
24:00 1004 29.65 833 24.6 5.4 41.7 92 4.2 39.5